createdAt,value
2022-10-18T00:00:26.618Z,23.00
2022-10-18T00:02:30.864Z,23.10
2022-10-18T00:04:40.134Z,23.10
2022-10-18T00:06:44.495Z,23.00
2022-10-18T00:08:50.509Z,23.00
2022-10-18T00:10:54.842Z,23.00
2022-10-18T00:13:00.753Z,23.10
2022-10-18T00:15:05.419Z,23.20
2022-10-18T00:17:09.784Z,23.10
2022-10-18T00:19:14.119Z,23.10
2022-10-18T00:21:19.805Z,23.10
2022-10-18T00:23:23.859Z,23.10
2022-10-18T00:25:28.832Z,23.20
2022-10-18T00:27:33.036Z,23.30
2022-10-18T00:29:37.471Z,23.20
2022-10-18T00:31:41.483Z,23.10
2022-10-18T00:33:58.539Z,23.10
2022-10-18T00:36:03.442Z,23.20
2022-10-18T00:38:11.762Z,23.20
2022-10-18T00:40:20.856Z,23.30
2022-10-18T00:42:25.100Z,23.30
2022-10-18T00:44:28.936Z,23.40
2022-10-18T00:46:36.760Z,23.40
2022-10-18T00:48:40.984Z,23.50
2022-10-18T00:50:45.415Z,23.50
2022-10-18T00:52:59.395Z,23.60
2022-10-18T00:55:03.777Z,23.60
2022-10-18T00:57:08.660Z,23.70
2022-10-18T00:59:15.575Z,23.70
2022-10-18T01:01:27.476Z,23.80
2022-10-18T01:03:32.584Z,23.80
2022-10-18T01:05:42.953Z,23.90
2022-10-18T01:08:11.090Z,23.90
2022-10-18T01:10:25.820Z,24.00
2022-10-18T01:12:36.564Z,24.00
2022-10-18T01:15:16.791Z,24.10
2022-10-18T01:17:25.641Z,24.10
2022-10-18T01:19:48.104Z,24.10
2022-10-18T01:21:58.540Z,24.10
2022-10-18T01:24:08.070Z,24.10
2022-10-18T01:26:30.326Z,24.20
2022-10-18T01:28:46.655Z,24.20
2022-10-18T01:30:57.068Z,24.30
2022-10-18T01:33:09.233Z,24.30
2022-10-18T01:35:15.447Z,24.30
2022-10-18T01:37:19.895Z,24.40
2022-10-18T01:39:26.416Z,24.40
2022-10-18T01:41:34.714Z,24.50
2022-10-18T01:43:39.820Z,24.60
2022-10-18T01:45:48.671Z,24.60
2022-10-18T01:47:53.305Z,24.80
2022-10-18T01:50:01.049Z,24.80
2022-10-18T01:52:05.780Z,24.80
2022-10-18T01:54:14.405Z,24.90
2022-10-18T01:56:29.274Z,25.00
2022-10-18T01:58:37.476Z,25.10
2022-10-18T02:00:45.358Z,25.20
2022-10-18T02:03:04.542Z,25.20
2022-10-18T02:05:09.926Z,25.20
2022-10-18T02:07:27.467Z,25.30
2022-10-18T02:09:40.958Z,25.40
2022-10-18T02:11:45.227Z,25.40
2022-10-18T02:14:03.749Z,25.50
2022-10-18T02:16:30.617Z,25.60
2022-10-18T02:18:38.232Z,25.60
2022-10-18T02:20:46.532Z,25.60
2022-10-18T02:22:50.643Z,25.60
2022-10-18T02:24:55.228Z,25.70
2022-10-18T02:27:03.895Z,25.80
2022-10-18T02:29:09.371Z,25.80
2022-10-18T02:31:28.601Z,25.80
2022-10-18T02:33:53.848Z,25.90
2022-10-18T02:36:06.067Z,26.00
2022-10-18T02:38:11.804Z,25.90
2022-10-18T02:40:18.530Z,26.00
2022-10-18T02:42:22.697Z,26.00
2022-10-18T02:44:26.694Z,26.10
2022-10-18T02:46:34.485Z,26.10
2022-10-18T02:48:44.212Z,26.10
2022-10-18T02:50:51.091Z,26.20
2022-10-18T02:53:01.431Z,26.30
2022-10-18T02:55:10.851Z,26.30
2022-10-18T02:57:15.335Z,26.30
2022-10-18T02:59:21.681Z,26.40
2022-10-18T03:01:25.788Z,26.40
2022-10-18T03:03:50.926Z,26.50
2022-10-18T03:05:57.707Z,26.50
2022-10-18T03:08:07.246Z,26.50
2022-10-18T03:10:13.099Z,26.60
2022-10-18T03:12:32.198Z,26.70
2022-10-18T03:14:36.182Z,26.70
2022-10-18T03:16:40.102Z,26.80
2022-10-18T03:18:48.678Z,26.70
2022-10-18T03:20:52.824Z,26.80
2022-10-18T03:22:56.764Z,26.90
2022-10-18T03:25:01.639Z,27.00
2022-10-18T03:27:08.831Z,27.00
2022-10-18T03:29:14.167Z,26.90
2022-10-18T03:31:20.725Z,27.00
2022-10-18T03:33:25.203Z,27.00
2022-10-18T03:35:30.227Z,27.00
2022-10-18T03:37:38.168Z,27.10
2022-10-18T03:39:53.165Z,27.20
2022-10-18T03:41:57.645Z,27.20
2022-10-18T03:44:08.505Z,27.20
2022-10-18T03:46:16.367Z,27.30
2022-10-18T03:48:20.955Z,27.40
2022-10-18T03:50:32.252Z,27.30
2022-10-18T03:52:40.893Z,27.30
2022-10-18T03:54:44.936Z,27.30
2022-10-18T03:56:55.081Z,27.50
2022-10-18T03:59:01.038Z,27.50
2022-10-18T04:01:17.737Z,27.50
2022-10-18T04:03:29.840Z,27.60
2022-10-18T04:05:37.798Z,27.70
2022-10-18T04:07:47.105Z,27.80
2022-10-18T04:09:52.381Z,27.80
2022-10-18T04:12:08.755Z,27.80
2022-10-18T04:14:14.175Z,27.80
2022-10-18T04:16:20.224Z,27.80
2022-10-18T04:18:24.671Z,27.80
2022-10-18T04:20:28.740Z,27.90
2022-10-18T04:22:32.976Z,27.90
2022-10-18T04:24:37.115Z,27.90
2022-10-18T04:26:41.417Z,27.90
2022-10-18T04:28:45.618Z,27.90
2022-10-18T04:30:53.308Z,28.00
2022-10-18T04:32:57.378Z,28.10
2022-10-18T04:35:01.982Z,28.20
2022-10-18T04:37:09.423Z,28.20
2022-10-18T04:39:20.546Z,28.30
2022-10-18T04:41:28.502Z,28.40
2022-10-18T04:43:34.731Z,28.40
2022-10-18T04:45:42.814Z,28.40
2022-10-18T04:48:03.662Z,28.50
2022-10-18T04:50:09.476Z,28.50
2022-10-18T04:52:13.525Z,28.40
2022-10-18T04:54:22.856Z,28.40
2022-10-18T04:56:29.318Z,28.40
2022-10-18T04:58:50.988Z,28.50
2022-10-18T05:00:59.636Z,28.50
2022-10-18T05:03:07.444Z,28.50
2022-10-18T05:05:14.080Z,28.50
2022-10-18T05:07:22.112Z,28.60
2022-10-18T05:09:26.877Z,28.60
2022-10-18T05:11:31.364Z,28.70
2022-10-18T05:13:41.377Z,28.70
2022-10-18T05:15:47.460Z,28.70
2022-10-18T05:17:52.040Z,28.80
2022-10-18T05:20:01.513Z,28.80
2022-10-18T05:22:07.534Z,28.80
2022-10-18T05:24:14.409Z,28.90
2022-10-18T05:26:20.848Z,29.00
2022-10-18T05:28:41.540Z,29.00
2022-10-18T05:30:45.622Z,29.00
2022-10-18T05:32:52.069Z,29.00
2022-10-18T05:34:55.968Z,29.00
2022-10-18T05:37:00.821Z,29.00
2022-10-18T05:39:08.460Z,29.00
2022-10-18T05:41:12.805Z,29.00
2022-10-18T05:43:21.141Z,29.10
2022-10-18T05:45:31.517Z,29.10
2022-10-18T05:49:47.436Z,29.10
2022-10-18T05:51:56.215Z,29.10
2022-10-18T05:54:00.786Z,29.20
2022-10-18T05:56:04.813Z,29.20
2022-10-18T05:58:09.512Z,29.20
2022-10-18T06:00:21.610Z,29.20
2022-10-18T06:02:37.730Z,29.20
2022-10-18T06:04:49.329Z,29.20
2022-10-18T06:06:56.940Z,29.20
2022-10-18T06:09:04.364Z,29.30
2022-10-18T06:11:10.846Z,29.30
2022-10-18T06:13:34.653Z,29.40
2022-10-18T06:15:43.351Z,29.40
2022-10-18T06:17:49.272Z,29.40
2022-10-18T06:19:53.560Z,29.40
2022-10-18T06:21:57.588Z,29.40
2022-10-18T06:24:07.111Z,29.40
2022-10-18T06:26:13.306Z,29.40
2022-10-18T06:28:17.862Z,29.50
2022-10-18T06:30:27.686Z,29.50
2022-10-18T06:32:33.044Z,29.60
2022-10-18T06:34:38.101Z,29.60
2022-10-18T06:36:42.727Z,29.60
2022-10-18T06:38:46.979Z,29.60
2022-10-18T06:40:52.727Z,29.60
2022-10-18T06:43:19.529Z,29.70
2022-10-18T06:45:26.267Z,29.60
2022-10-18T06:47:49.255Z,29.70
2022-10-18T06:49:56.457Z,29.70
2022-10-18T06:52:01.303Z,29.80
2022-10-18T06:54:17.459Z,29.80
2022-10-18T06:56:26.706Z,29.80
2022-10-18T06:58:32.639Z,29.80
2022-10-18T07:00:40.478Z,29.80
2022-10-18T07:02:48.450Z,29.80
2022-10-18T07:04:55.479Z,29.80
2022-10-18T07:06:59.639Z,29.80
2022-10-18T07:09:07.971Z,29.90
2022-10-18T07:11:19.164Z,29.90
2022-10-18T07:13:38.602Z,29.90
2022-10-18T07:15:46.988Z,29.90
2022-10-18T07:17:52.869Z,29.90
2022-10-18T07:19:57.146Z,29.90
2022-10-18T07:22:06.099Z,29.90
2022-10-18T07:24:11.377Z,30.00
2022-10-18T07:26:24.208Z,30.00
2022-10-18T07:28:34.563Z,30.00
2022-10-18T07:30:39.608Z,30.00
2022-10-18T07:32:44.443Z,30.00
2022-10-18T07:34:56.860Z,30.00
2022-10-18T07:37:09.118Z,30.00
2022-10-18T07:39:28.465Z,30.00
2022-10-18T07:41:38.129Z,30.10
2022-10-18T07:43:43.898Z,30.10
2022-10-18T07:45:52.965Z,30.10
2022-10-18T07:47:57.776Z,30.10
2022-10-18T07:50:02.510Z,30.10
2022-10-18T07:52:10.781Z,30.20
2022-10-18T07:54:18.977Z,30.20
2022-10-18T07:56:30.090Z,30.20
2022-10-18T07:58:34.367Z,30.20
2022-10-18T08:00:38.935Z,30.20
2022-10-18T08:02:59.069Z,30.20
2022-10-18T08:05:08.595Z,30.20
2022-10-18T08:07:24.388Z,30.20
2022-10-18T08:09:34.191Z,30.20
2022-10-18T08:11:38.535Z,30.30
2022-10-18T08:13:45.355Z,30.30
2022-10-18T08:15:49.327Z,30.30
2022-10-18T08:17:53.513Z,30.30
2022-10-18T08:20:11.484Z,30.30
2022-10-18T08:22:16.529Z,30.30
2022-10-18T08:24:21.993Z,30.20
2022-10-18T08:26:31.691Z,30.20
2022-10-18T08:28:49.062Z,30.20
2022-10-18T08:31:05.863Z,30.20
2022-10-18T08:33:21.585Z,30.30
2022-10-18T08:35:27.127Z,30.30
2022-10-18T08:37:32.950Z,30.20
2022-10-18T08:39:42.990Z,30.20
2022-10-18T08:41:53.165Z,30.30
2022-10-18T08:44:02.097Z,30.30
2022-10-18T08:46:13.297Z,30.30
2022-10-18T08:48:22.794Z,30.30
2022-10-18T08:50:36.355Z,30.30
2022-10-18T08:52:57.620Z,30.30
2022-10-18T08:55:06.197Z,30.30
2022-10-18T08:57:15.898Z,30.30
2022-10-18T08:59:25.675Z,30.30
2022-10-18T09:01:29.852Z,30.30
2022-10-18T09:03:45.988Z,30.30
2022-10-18T09:06:08.766Z,30.30
2022-10-18T09:08:19.545Z,30.20
2022-10-18T09:10:34.482Z,30.20
2022-10-18T09:12:49.745Z,30.20
2022-10-18T09:15:07.864Z,30.20
2022-10-18T09:17:32.268Z,30.20
2022-10-18T09:19:42.676Z,30.20
2022-10-18T09:21:53.833Z,30.20
2022-10-18T09:24:04.330Z,30.10
2022-10-18T09:26:15.842Z,30.00
2022-10-18T09:28:34.412Z,30.00
2022-10-18T09:30:41.602Z,30.00
2022-10-18T09:33:06.723Z,30.10
2022-10-18T09:35:24.089Z,30.00
2022-10-18T09:37:28.975Z,30.00
2022-10-18T09:39:36.287Z,30.00
2022-10-18T09:41:57.318Z,30.00
2022-10-18T09:44:10.227Z,30.00
2022-10-18T09:46:18.701Z,29.90
2022-10-18T09:48:40.264Z,29.90
2022-10-18T09:50:59.010Z,29.90
2022-10-18T09:53:19.145Z,29.80
2022-10-18T09:55:31.163Z,29.80
2022-10-18T09:57:52.082Z,29.80
2022-10-18T10:00:17.724Z,29.80
2022-10-18T10:02:25.388Z,29.70
2022-10-18T10:04:31.704Z,29.70
2022-10-18T10:06:37.146Z,29.60
2022-10-18T10:08:52.464Z,29.60
2022-10-18T10:10:57.601Z,29.60
2022-10-18T10:13:29.399Z,29.50
2022-10-18T10:15:38.100Z,29.50
2022-10-18T10:17:44.585Z,29.50
2022-10-18T10:20:01.131Z,29.40
2022-10-18T10:22:10.123Z,29.40
2022-10-18T10:24:20.397Z,29.30
2022-10-18T10:26:37.375Z,29.30
2022-10-18T10:28:49.658Z,29.20
2022-10-18T10:30:54.171Z,29.20
2022-10-18T10:32:58.446Z,29.20
2022-10-18T10:35:04.855Z,29.20
2022-10-18T10:37:30.569Z,29.10
2022-10-18T10:44:54.017Z,29.10
2022-10-18T10:47:03.203Z,28.90
2022-10-18T10:49:39.023Z,28.80
2022-10-18T10:52:08.192Z,28.90
2022-10-18T10:54:21.861Z,28.90
2022-10-18T10:56:27.373Z,28.80
2022-10-18T10:58:37.434Z,28.80
2022-10-18T11:00:43.199Z,28.80
2022-10-18T11:02:59.318Z,28.70
2022-10-18T11:05:26.347Z,28.70
2022-10-18T11:07:33.256Z,28.60
2022-10-18T11:09:40.160Z,28.50
2022-10-18T11:11:47.959Z,28.60
2022-10-18T11:14:07.380Z,28.50
2022-10-18T11:16:27.524Z,28.50
2022-10-18T11:18:34.011Z,28.50
2022-10-18T11:20:39.841Z,28.50
2022-10-18T11:22:45.432Z,28.40
2022-10-18T11:24:49.796Z,28.40
2022-10-18T11:26:55.975Z,28.30
2022-10-18T11:29:18.800Z,28.30
2022-10-18T11:31:40.878Z,28.30
2022-10-18T11:34:07.510Z,28.20
2022-10-18T11:36:14.027Z,28.20
2022-10-18T11:38:48.158Z,28.20
2022-10-18T11:40:59.117Z,28.20
2022-10-18T11:43:17.564Z,28.20
2022-10-18T11:45:42.077Z,28.10
2022-10-18T11:48:11.865Z,28.10
2022-10-18T11:50:27.265Z,28.00
2022-10-18T11:52:50.771Z,28.00
2022-10-18T11:55:21.027Z,28.00
2022-10-18T11:57:31.784Z,27.90
2022-10-18T11:59:36.028Z,27.90
2022-10-18T12:01:52.579Z,27.90
2022-10-18T12:03:59.632Z,27.90
2022-10-18T12:06:08.417Z,27.80
2022-10-18T12:08:15.046Z,27.80
2022-10-18T12:10:27.295Z,27.70
2022-10-18T12:12:49.775Z,27.70
2022-10-18T12:14:56.011Z,27.70
2022-10-18T12:17:39.279Z,27.70
2022-10-18T12:19:37.540Z,27.70
2022-10-18T12:21:50.611Z,27.60
2022-10-18T12:24:05.026Z,27.60
2022-10-18T12:26:16.061Z,27.60
2022-10-18T12:28:26.039Z,27.60
2022-10-18T12:30:49.190Z,27.60
2022-10-18T12:33:23.259Z,27.50
2022-10-18T12:36:06.146Z,27.50
2022-10-18T12:38:25.707Z,27.50
2022-10-18T12:40:41.916Z,27.50
2022-10-18T12:42:48.164Z,27.50
2022-10-18T12:45:01.957Z,27.40
2022-10-18T12:47:06.438Z,27.30
2022-10-18T12:49:12.261Z,27.30
2022-10-18T12:51:19.185Z,27.30
2022-10-18T12:53:27.680Z,27.30
2022-10-18T12:55:32.727Z,27.30
2022-10-18T12:57:53.341Z,27.30
2022-10-18T13:00:05.795Z,27.30
2022-10-18T13:02:24.858Z,27.20
2022-10-18T13:04:35.684Z,27.20
2022-10-18T13:06:58.583Z,27.20
2022-10-18T13:09:17.165Z,27.20
2022-10-18T13:11:34.426Z,27.20
2022-10-18T13:13:47.513Z,27.10
2022-10-18T13:15:54.531Z,27.10
2022-10-18T13:18:04.659Z,27.10
2022-10-18T13:20:26.780Z,27.10
2022-10-18T13:22:54.363Z,27.10
2022-10-18T13:25:09.584Z,27.00
2022-10-18T13:27:37.152Z,27.00
2022-10-18T13:30:07.268Z,27.00
2022-10-18T13:32:20.689Z,27.00
2022-10-18T13:34:35.930Z,26.90
2022-10-18T13:36:41.004Z,26.90
2022-10-18T13:38:50.345Z,26.90
2022-10-18T13:41:06.589Z,26.90
2022-10-18T13:43:29.852Z,26.80
2022-10-18T13:45:34.166Z,26.80
2022-10-18T13:47:39.104Z,26.80
2022-10-18T13:49:58.498Z,26.80
2022-10-18T13:52:23.937Z,26.70
2022-10-18T13:54:46.268Z,26.70
2022-10-18T13:56:56.513Z,26.70
2022-10-18T13:59:19.256Z,26.70
2022-10-18T14:01:42.713Z,26.70
2022-10-18T14:03:57.337Z,26.70
2022-10-18T14:06:28.971Z,26.60
2022-10-18T14:09:13.768Z,26.60
2022-10-18T14:11:48.793Z,26.60
2022-10-18T14:14:12.588Z,26.60
2022-10-18T14:16:36.784Z,26.50
2022-10-18T14:18:45.373Z,26.50
2022-10-18T14:21:12.730Z,26.50
2022-10-18T14:23:29.185Z,26.50
2022-10-18T14:25:43.156Z,26.40
2022-10-18T14:28:27.429Z,26.40
2022-10-18T14:31:05.209Z,26.40
2022-10-18T14:33:27.510Z,26.40
2022-10-18T14:35:47.618Z,26.40
2022-10-18T14:38:05.841Z,26.30
2022-10-18T14:40:33.405Z,26.30
2022-10-18T14:42:57.246Z,26.40
2022-10-18T14:45:01.470Z,26.30
2022-10-18T14:47:15.304Z,26.30
2022-10-18T14:49:20.991Z,26.30
2022-10-18T14:51:30.492Z,26.30
2022-10-18T14:53:37.839Z,26.40
2022-10-18T14:55:44.094Z,26.40
2022-10-18T14:57:49.853Z,26.40
2022-10-18T14:59:54.843Z,26.40
2022-10-18T15:02:01.813Z,26.30
2022-10-18T15:04:14.402Z,26.30
2022-10-18T15:06:20.432Z,26.30
2022-10-18T15:08:46.652Z,26.30
2022-10-18T15:10:54.926Z,26.30
2022-10-18T15:13:09.716Z,26.30
2022-10-18T15:15:20.250Z,26.20
2022-10-18T15:17:33.200Z,26.20
2022-10-18T15:19:40.523Z,26.20
2022-10-18T15:22:07.979Z,26.20
2022-10-18T15:24:22.864Z,26.20
2022-10-18T15:26:30.513Z,26.20
2022-10-18T15:28:40.694Z,26.20
2022-10-18T15:30:48.335Z,26.20
2022-10-18T15:33:03.766Z,26.20
2022-10-18T15:35:20.975Z,26.20
2022-10-18T15:37:49.974Z,26.20
2022-10-18T15:40:25.306Z,26.20
2022-10-18T15:42:39.031Z,26.20
2022-10-18T15:44:54.628Z,26.20
2022-10-18T15:47:13.263Z,26.20
2022-10-18T15:49:27.983Z,26.20
2022-10-18T15:51:52.700Z,26.10
2022-10-18T15:54:04.711Z,26.10
2022-10-18T15:56:27.744Z,26.10
2022-10-18T15:58:44.416Z,26.10
2022-10-18T16:01:05.412Z,26.00
2022-10-18T16:03:29.390Z,26.10
2022-10-18T16:06:01.376Z,26.10
2022-10-18T16:08:21.822Z,26.10
2022-10-18T16:10:29.524Z,26.00
2022-10-18T16:12:57.416Z,26.00
2022-10-18T16:15:18.422Z,26.00
2022-10-18T16:17:36.112Z,26.00
2022-10-18T16:20:01.937Z,26.00
2022-10-18T16:22:20.803Z,26.00
2022-10-18T16:24:33.780Z,25.90
2022-10-18T16:26:59.647Z,25.80
2022-10-18T16:29:27.141Z,25.80
2022-10-18T16:31:51.823Z,25.80
2022-10-18T16:34:14.259Z,25.70
2022-10-18T16:36:38.322Z,25.70
2022-10-18T16:38:46.944Z,25.70
2022-10-18T16:40:57.958Z,25.70
2022-10-18T16:43:08.709Z,25.70
2022-10-18T16:45:23.539Z,25.70
2022-10-18T16:47:49.391Z,25.70
2022-10-18T16:50:17.162Z,25.70
2022-10-18T16:52:41.234Z,25.70
2022-10-18T16:55:05.037Z,25.70
2022-10-18T16:57:16.759Z,25.60
2022-10-18T16:59:34.599Z,25.60
2022-10-18T17:01:56.806Z,25.60
2022-10-18T17:04:05.976Z,25.60
2022-10-18T17:06:16.890Z,25.60
2022-10-18T17:08:27.987Z,25.60
2022-10-18T17:10:36.852Z,25.60
2022-10-18T17:12:41.373Z,25.60
2022-10-18T17:14:47.478Z,25.50
2022-10-18T17:16:54.829Z,25.50
2022-10-18T17:19:03.234Z,25.50
2022-10-18T17:21:07.447Z,25.50
2022-10-18T17:23:12.194Z,25.50
2022-10-18T17:25:17.223Z,25.50
2022-10-18T17:27:24.587Z,25.40
2022-10-18T17:29:31.474Z,25.40
2022-10-18T17:31:36.668Z,25.40
2022-10-18T17:33:41.767Z,25.40
2022-10-18T17:35:49.292Z,25.40
2022-10-18T17:37:54.589Z,25.40
2022-10-18T17:40:00.602Z,25.40
2022-10-18T17:42:09.395Z,25.40
2022-10-18T17:44:13.632Z,25.40
2022-10-18T17:46:19.789Z,25.40
2022-10-18T17:48:24.016Z,25.40
2022-10-18T17:50:28.569Z,25.30
2022-10-18T17:52:34.867Z,25.30
2022-10-18T17:54:40.881Z,25.30
2022-10-18T17:56:46.898Z,25.20
2022-10-18T17:58:54.651Z,25.20
2022-10-18T18:01:01.403Z,25.20
2022-10-18T18:03:06.868Z,25.20
2022-10-18T18:05:25.728Z,25.20
2022-10-18T18:07:31.892Z,25.10
2022-10-18T18:09:36.647Z,25.10
2022-10-18T18:11:42.784Z,25.10
2022-10-18T18:13:49.185Z,25.00
2022-10-18T18:15:54.940Z,25.00
2022-10-18T18:18:01.382Z,25.00
2022-10-18T18:20:12.980Z,24.90
2022-10-18T18:22:21.856Z,24.90
2022-10-18T18:24:29.387Z,24.90
2022-10-18T18:26:37.124Z,24.90
2022-10-18T18:28:41.658Z,24.90
2022-10-18T18:30:48.271Z,24.90
2022-10-18T18:32:55.448Z,24.90
2022-10-18T18:35:01.968Z,24.90
2022-10-18T18:37:12.018Z,24.90
2022-10-18T18:39:19.563Z,24.90
2022-10-18T18:41:29.198Z,24.80
2022-10-18T18:43:40.903Z,24.80
2022-10-18T18:45:50.977Z,24.80
2022-10-18T18:47:57.263Z,24.70
2022-10-18T18:50:09.003Z,24.70
2022-10-18T18:52:15.456Z,24.70
2022-10-18T18:54:20.322Z,24.70
2022-10-18T18:56:39.548Z,24.60
2022-10-18T18:58:49.505Z,24.60
2022-10-18T19:00:54.333Z,24.60
2022-10-18T19:03:01.333Z,24.60
2022-10-18T19:05:07.012Z,24.50
2022-10-18T19:07:13.611Z,24.50
2022-10-18T19:09:25.140Z,24.50
2022-10-18T19:11:46.984Z,24.40
2022-10-18T19:13:54.866Z,24.40
2022-10-18T19:16:27.624Z,24.40
2022-10-18T19:18:55.580Z,24.30
2022-10-18T19:21:04.899Z,24.30
2022-10-18T19:23:17.447Z,24.30
2022-10-18T19:25:27.748Z,24.30
2022-10-18T19:27:45.932Z,24.20
2022-10-18T19:29:55.036Z,24.20
2022-10-18T19:32:02.381Z,24.20
2022-10-18T19:34:09.012Z,24.10
2022-10-18T19:36:15.508Z,24.10
2022-10-18T19:38:21.453Z,24.00
2022-10-18T19:40:26.513Z,24.00
2022-10-18T19:42:32.897Z,24.00
2022-10-18T19:44:39.386Z,24.00
2022-10-18T19:46:44.013Z,24.00
2022-10-18T19:48:48.201Z,24.10
2022-10-18T19:51:12.268Z,24.00
2022-10-18T19:53:19.996Z,24.00
2022-10-18T19:55:28.343Z,24.00
2022-10-18T19:57:35.560Z,24.00
2022-10-18T20:01:50.950Z,24.00
2022-10-18T20:03:59.944Z,24.00
2022-10-18T20:06:19.646Z,24.00
2022-10-18T20:08:33.867Z,24.00
2022-10-18T20:10:44.534Z,24.00
2022-10-18T20:12:59.615Z,23.90
2022-10-18T20:15:09.979Z,23.80
2022-10-18T20:17:35.881Z,23.80
2022-10-18T20:19:42.511Z,23.80
2022-10-18T20:21:56.092Z,23.70
2022-10-18T20:24:05.342Z,23.70
2022-10-18T20:26:11.989Z,23.70
2022-10-18T20:28:21.452Z,23.70
2022-10-18T20:30:30.529Z,23.70
2022-10-18T20:32:40.551Z,23.70
2022-10-18T20:34:47.352Z,23.70
2022-10-18T20:36:54.101Z,23.70
2022-10-18T20:38:59.648Z,23.60
2022-10-18T20:41:11.497Z,23.60
2022-10-18T20:43:19.716Z,23.60
2022-10-18T20:45:24.731Z,23.60
2022-10-18T20:47:32.019Z,23.60
2022-10-18T20:49:38.899Z,23.50
2022-10-18T20:51:44.609Z,23.50
2022-10-18T20:53:52.618Z,23.50
2022-10-18T20:56:06.013Z,23.50
2022-10-18T20:58:11.356Z,23.50
2022-10-18T21:00:19.921Z,23.50
2022-10-18T21:02:26.273Z,23.40
2022-10-18T21:04:30.661Z,23.40
2022-10-18T21:06:45.376Z,23.40
2022-10-18T21:09:00.420Z,23.40
2022-10-18T21:11:09.177Z,23.40
2022-10-18T21:13:15.941Z,23.40
2022-10-18T21:15:25.293Z,23.30
2022-10-18T21:17:36.581Z,23.20
2022-10-18T21:19:44.377Z,23.20
2022-10-18T21:22:08.233Z,23.30
2022-10-18T21:24:13.513Z,23.30
2022-10-18T21:26:21.002Z,23.20
2022-10-18T21:28:26.388Z,23.20
2022-10-18T21:30:30.438Z,23.10
2022-10-18T21:32:38.648Z,23.20
2022-10-18T21:34:47.818Z,23.10
2022-10-18T21:36:59.844Z,23.10
2022-10-18T21:39:11.842Z,22.80
2022-10-18T21:41:34.008Z,22.80
2022-10-18T21:43:57.738Z,22.90
2022-10-18T21:46:10.650Z,23.00
2022-10-18T21:48:26.767Z,23.00
2022-10-18T21:50:45.227Z,22.80
2022-10-18T21:52:58.711Z,22.90
2022-10-18T21:55:08.183Z,22.80
2022-10-18T21:57:14.915Z,22.90
2022-10-18T21:59:22.538Z,22.70
2022-10-18T22:01:30.825Z,22.80
2022-10-18T22:03:35.180Z,22.80
2022-10-18T22:05:40.285Z,22.80
2022-10-18T22:07:44.352Z,22.80
2022-10-18T22:09:48.470Z,22.60
2022-10-18T22:11:54.757Z,22.70
2022-10-18T22:13:58.907Z,22.70
2022-10-18T22:16:04.300Z,22.70
2022-10-18T22:18:09.451Z,22.70
2022-10-18T22:20:16.257Z,22.80
2022-10-18T22:22:20.756Z,22.80
2022-10-18T22:24:29.880Z,22.80
2022-10-18T22:26:55.722Z,22.80
2022-10-18T22:29:00.854Z,22.90
2022-10-18T22:31:18.534Z,22.80
2022-10-18T22:33:38.126Z,22.80
2022-10-18T22:35:52.212Z,22.80
2022-10-18T22:38:17.919Z,22.80
2022-10-18T22:40:34.595Z,22.80
2022-10-18T22:42:52.968Z,22.80
2022-10-18T22:44:59.202Z,22.80
2022-10-18T22:47:08.222Z,22.80
2022-10-18T22:49:16.662Z,22.80
2022-10-18T22:51:25.514Z,22.80
2022-10-18T22:53:41.106Z,22.80
2022-10-18T22:55:54.185Z,22.80
2022-10-18T22:58:05.908Z,22.70
2022-10-18T23:00:14.567Z,22.70
2022-10-18T23:02:21.348Z,22.70
2022-10-18T23:04:28.353Z,22.70
2022-10-18T23:06:54.465Z,22.70
2022-10-18T23:09:11.737Z,22.70
2022-10-18T23:11:26.972Z,22.60
2022-10-18T23:13:48.804Z,22.60
2022-10-18T23:15:54.580Z,22.60
2022-10-18T23:18:05.995Z,22.60
2022-10-18T23:20:31.810Z,22.60
2022-10-18T23:22:49.991Z,22.60
2022-10-18T23:24:55.763Z,22.60
2022-10-18T23:26:59.937Z,22.70
2022-10-18T23:29:05.498Z,22.70
2022-10-18T23:31:14.973Z,22.70
2022-10-18T23:33:25.856Z,22.70
2022-10-18T23:35:35.746Z,22.70
2022-10-18T23:38:02.159Z,22.60
2022-10-18T23:40:07.908Z,22.60
2022-10-18T23:42:27.882Z,22.60
2022-10-18T23:44:51.782Z,22.60
2022-10-18T23:47:14.491Z,22.70
2022-10-18T23:49:29.945Z,22.60
2022-10-18T23:51:36.658Z,22.60
2022-10-18T23:53:40.783Z,22.70
2022-10-18T23:55:53.969Z,22.60
2022-10-18T23:58:00.105Z,22.60
